Time;durP1;ratioP1;P1;durP2;ratioP2;P2;SDS_P1;SDS_P2;PMS_P1;PMS_P2;Temp;Humidity;BMP_temperature;BMP_pressure;BME280_temperature;BME280_humidity;BME280_pressure;Samples;Min_cycle;Max_cycle;Signal;HPM_P1;HPM_P2
2023/10/12 00:01:14;;;;;;;57.00;2.27;;;;;;;;;;5070214;28;20451;-73
2023/10/12 00:03:44;;;;;;;56.60;2.33;;;;;;;;;;5070319;28;20533;-72
2023/10/12 00:06:13;;;;;;;57.50;2.77;;;;;;;;;;5070321;28;20489;-73
2023/10/12 00:08:41;;;;;;;57.30;3.83;;;;;;;;;;5067683;28;20489;-73
2023/10/12 00:11:08;;;;;;;56.37;2.27;;;;;;;;;;5059060;28;20464;-73
2023/10/12 00:13:41;;;;;;;56.90;3.00;;;;;;;;;;5060881;28;20455;-72
2023/10/12 00:16:09;;;;;;;56.57;2.60;;;;;;;;;;5070179;28;20864;-73
2023/10/12 00:18:38;;;;;;;57.17;3.00;;;;;;;;;;5070069;28;20566;-73
2023/10/12 00:21:14;;;;;;;56.97;2.93;;;;;;;;;;5069643;28;20455;-72
2023/10/12 00:23:45;;;;;;;56.80;2.60;;;;;;;;;;5069909;28;20443;-73
2023/10/12 00:26:13;;;;;;;57.17;3.20;;;;;;;;;;5070074;28;20525;-72
2023/10/12 00:28:44;;;;;;;56.57;2.40;;;;;;;;;;5070157;28;20483;-73
2023/10/12 00:31:17;;;;;;;56.77;2.80;;;;;;;;;;5069420;28;20971;-73
2023/10/12 00:33:48;;;;;;;56.87;2.70;;;;;;;;;;5061796;28;21016;-73
2023/10/12 00:36:21;;;;;;;56.50;2.40;;;;;;;;;;5069673;28;21030;-73
2023/10/12 00:38:52;;;;;;;56.73;2.37;;;;;;;;;;5069805;28;20474;-73
2023/10/12 00:41:19;;;;;;;56.33;2.40;;;;;;;;;;5069740;28;20455;-73
2023/10/12 00:43:50;;;;;;;56.60;2.60;;;;;;;;;;5072648;28;20513;-73
2023/10/12 00:46:21;;;;;;;60.60;3.07;;;;;;;;;;5073122;28;20451;-72
2023/10/12 00:48:50;;;;;;;56.80;2.50;;;;;;;;;;5073350;28;20493;-72
2023/10/12 00:51:17;;;;;;;56.57;2.40;;;;;;;;;;5072932;28;20454;-72
2023/10/12 00:53:55;;;;;;;57.77;3.33;;;;;;;;;;5073005;28;20534;-73
2023/10/12 00:56:24;;;;;;;56.83;3.13;;;;;;;;;;5073261;28;20478;-72
2023/10/12 00:58:54;;;;;;;56.90;2.93;;;;;;;;;;5073482;28;20459;-73
2023/10/12 01:01:23;;;;;;;56.80;2.90;;;;;;;;;;5072379;28;21063;-73
2023/10/12 01:03:50;;;;;;;56.80;2.80;;;;;;;;;;5073222;28;20907;-73
2023/10/12 01:06:28;;;;;;;56.70;2.70;;;;;;;;;;5072745;28;20462;-72
2023/10/12 01:08:57;;;;;;;64.30;2.60;;;;;;;;;;5073087;28;20824;-72
2023/10/12 01:11:26;;;;;;;56.80;2.50;;;;;;;;;;5072593;28;20448;-72
2023/10/12 01:14:05;;;;;;;58.00;3.23;;;;;;;;;;5073124;28;20454;-72
2023/10/12 01:16:45;;;;;;;56.97;2.90;;;;;;;;;;5072610;28;20447;-72
2023/10/12 01:19:20;;;;;;;56.77;2.90;;;;;;;;;;5072834;28;20959;-72
2023/10/12 01:21:49;;;;;;;56.57;2.83;;;;;;;;;;5072362;28;20965;-72
2023/10/12 01:24:16;;;;;;;57.10;2.60;;;;;;;;;;5073154;28;20445;-73
2023/10/12 01:26:44;;;;;;;57.10;2.50;;;;;;;;;;5072894;28;20474;-73
2023/10/12 01:29:19;;;;;;;57.30;2.97;;;;;;;;;;5072631;28;20596;-72
2023/10/12 01:31:51;;;;;;;56.57;2.47;;;;;;;;;;5072644;28;20435;-72
2023/10/12 01:34:24;;;;;;;56.60;2.60;;;;;;;;;;5072374;28;20447;-73
2023/10/12 01:36:54;;;;;;;56.53;2.40;;;;;;;;;;5064779;28;20456;-72
2023/10/12 01:39:21;;;;;;;57.00;2.50;;;;;;;;;;5072901;28;20552;-72
2023/10/12 01:41:51;;;;;;;56.30;2.10;;;;;;;;;;5071756;28;20455;-73
2023/10/12 01:44:18;;;;;;;56.93;2.63;;;;;;;;;;5072872;28;20505;-73
2023/10/12 01:46:49;;;;;;;57.20;2.90;;;;;;;;;;5072438;28;20447;-72
2023/10/12 01:49:17;;;;;;;56.67;2.93;;;;;;;;;;5071341;28;20483;-73
2023/10/12 01:51:46;;;;;;;56.67;2.77;;;;;;;;;;5072167;28;20446;-73
2023/10/12 01:54:22;;;;;;;57.83;3.97;;;;;;;;;;5072387;28;20863;-72
2023/10/12 01:56:51;;;;;;;56.70;2.63;;;;;;;;;;5072365;28;20443;-72
2023/10/12 01:59:19;;;;;;;56.90;3.00;;;;;;;;;;5072473;28;20489;-72
2023/10/12 02:01:47;;;;;;;56.97;2.97;;;;;;;;;;5072368;28;20440;-72
2023/10/12 02:04:14;;;;;;;56.67;2.53;;;;;;;;;;5072113;28;20493;-73
2023/10/12 02:06:43;;;;;;;58.30;3.70;;;;;;;;;;5072022;28;20448;-73
2023/10/12 02:09:11;;;;;;;56.40;2.30;;;;;;;;;;5062728;28;20484;-73
2023/10/12 02:11:53;;;;;;;56.60;2.40;;;;;;;;;;5062490;28;20508;-73
2023/10/12 02:14:31;;;;;;;56.77;2.60;;;;;;;;;;5068214;28;20452;-72
2023/10/12 02:17:02;;;;;;;56.53;2.50;;;;;;;;;;5065317;28;20947;-73
2023/10/12 02:19:41;;;;;;;56.77;2.60;;;;;;;;;;5071627;28;20463;-73
2023/10/12 02:22:18;;;;;;;56.30;2.40;;;;;;;;;;5071852;28;20981;-73
2023/10/12 02:24:50;;;;;;;57.00;2.73;;;;;;;;;;5071661;28;20451;-73
2023/10/12 02:27:19;;;;;;;57.73;2.60;;;;;;;;;;5071841;28;20444;-72
2023/10/12 02:29:49;;;;;;;57.33;3.00;;;;;;;;;;5071570;28;20491;-73
2023/10/12 02:32:20;;;;;;;56.17;2.50;;;;;;;;;;5071440;28;20907;-73
2023/10/12 02:34:51;;;;;;;56.27;2.20;;;;;;;;;;5071582;28;20462;-73
2023/10/12 02:37:19;;;;;;;56.37;2.50;;;;;;;;;;5071767;28;20551;-73
2023/10/12 02:39:48;;;;;;;56.40;2.40;;;;;;;;;;5071380;28;20554;-72
2023/10/12 02:42:21;;;;;;;56.50;2.70;;;;;;;;;;5071350;28;20477;-73
2023/10/12 02:47:40;;;;;;;56.47;2.60;;;;;;;;;;5071396;28;20967;-72
2023/10/12 02:50:20;;;;;;;56.70;2.97;;;;;;;;;;5071205;28;20491;-73
2023/10/12 02:52:49;;;;;;;56.70;2.53;;;;;;;;;;5071033;28;20452;-72
2023/10/12 02:55:26;;;;;;;57.30;2.70;;;;;;;;;;5071080;28;20543;-72
2023/10/12 02:57:59;;;;;;;56.43;2.30;;;;;;;;;;5071425;28;20435;-73
2023/10/12 03:00:35;;;;;;;56.77;2.70;;;;;;;;;;5071195;28;20444;-73
2023/10/12 03:03:07;;;;;;;56.27;2.40;;;;;;;;;;5071143;28;20443;-72
2023/10/12 03:05:46;;;;;;;57.50;3.10;;;;;;;;;;5070544;28;20822;-73
2023/10/12 03:08:14;;;;;;;56.57;2.50;;;;;;;;;;5070853;28;21024;-72
2023/10/12 03:11:00;;;;;;;56.67;3.10;;;;;;;;;;5070942;28;20497;-73
2023/10/12 03:13:33;;;;;;;56.67;2.43;;;;;;;;;;5070919;28;20761;-72
2023/10/12 03:16:08;;;;;;;56.70;2.70;;;;;;;;;;5070897;28;20451;-73
2023/10/12 03:18:35;;;;;;;56.53;2.50;;;;;;;;;;5071090;28;20492;-72
2023/10/12 03:21:04;;;;;;;56.43;2.33;;;;;;;;;;5071054;28;20443;-72
2023/10/12 03:23:33;;;;;;;56.77;2.40;;;;;;;;;;5070837;28;20462;-72
2023/10/12 03:26:04;;;;;;;57.27;4.20;;;;;;;;;;5070928;28;20887;-72
2023/10/12 03:28:36;;;;;;;56.47;2.30;;;;;;;;;;5070467;28;20467;-72
2023/10/12 03:31:15;;;;;;;56.57;2.37;;;;;;;;;;5070775;28;20979;-73
2023/10/12 03:33:46;;;;;;;56.37;2.40;;;;;;;;;;5070886;28;20553;-73
2023/10/12 03:36:22;;;;;;;56.53;2.53;;;;;;;;;;5070846;28;20491;-73
2023/10/12 03:39:06;;;;;;;56.90;2.70;;;;;;;;;;5070557;28;20451;-73
2023/10/12 03:41:54;;;;;;;56.70;2.80;;;;;;;;;;5070184;28;20473;-73
2023/10/12 03:44:35;;;;;;;57.10;3.40;;;;;;;;;;5070974;28;20448;-73
2023/10/12 03:47:15;;;;;;;60.30;2.93;;;;;;;;;;5063891;28;20443;-73
2023/10/12 03:49:57;;;;;;;56.27;2.33;;;;;;;;;;5070446;28;20493;-73
2023/10/12 03:52:28;;;;;;;57.90;2.80;;;;;;;;;;5070371;28;20435;-73
2023/10/12 03:55:09;;;;;;;57.33;3.13;;;;;;;;;;5070816;28;20454;-73
2023/10/12 03:57:41;;;;;;;56.47;2.33;;;;;;;;;;5070396;28;20458;-73
2023/10/12 04:03:12;;;;;;;56.80;2.43;;;;;;;;;;5088307;28;20528;-72
2023/10/12 04:05:51;;;;;;;56.47;2.37;;;;;;;;;;5088201;28;20452;-72
2023/10/12 04:08:38;;;;;;;56.60;2.70;;;;;;;;;;5083339;28;20980;-72
2023/10/12 04:14:09;;;;;;;56.40;2.50;;;;;;;;;;5067964;28;20423;-72
2023/10/12 04:16:40;;;;;;;56.70;2.73;;;;;;;;;;5067705;28;20570;-72
2023/10/12 04:19:10;;;;;;;57.33;3.40;;;;;;;;;;5067830;28;20531;-72
2023/10/12 04:21:36;;;;;;;56.30;2.20;;;;;;;;;;5067521;28;20491;-72
2023/10/12 04:29:30;;;;;;;56.50;2.50;;;;;;;;;;5067379;28;20967;-72
2023/10/12 04:32:09;;;;;;;56.47;2.60;;;;;;;;;;5068011;28;20455;-72
2023/10/12 04:34:47;;;;;;;56.90;3.10;;;;;;;;;;5067556;28;20868;-72
2023/10/12 04:37:19;;;;;;;56.57;3.00;;;;;;;;;;5067406;28;20839;-72
2023/10/12 04:39:56;;;;;;;56.20;2.40;;;;;;;;;;5066605;28;20467;-72
2023/10/12 04:42:23;;;;;;;56.20;2.40;;;;;;;;;;5067598;28;20508;-72
2023/10/12 04:45:03;;;;;;;56.70;3.27;;;;;;;;;;5067465;28;20448;-72
2023/10/12 04:47:30;;;;;;;56.40;2.60;;;;;;;;;;5067581;28;20456;-73
2023/10/12 04:49:57;;;;;;;56.87;3.10;;;;;;;;;;5067391;28;21042;-73
2023/10/12 04:52:32;;;;;;;56.30;2.40;;;;;;;;;;5066984;28;20448;-72
2023/10/12 04:55:20;;;;;;;56.40;2.30;;;;;;;;;;5067266;28;20877;-73
2023/10/12 04:57:50;;;;;;;56.20;2.30;;;;;;;;;;5066893;28;20470;-72
2023/10/12 05:00:17;;;;;;;56.63;2.57;;;;;;;;;;5066857;28;20866;-72
2023/10/12 05:02:58;;;;;;;56.27;2.20;;;;;;;;;;5066541;28;20534;-72
2023/10/12 05:08:21;;;;;;;56.50;2.50;;;;;;;;;;5066637;28;20460;-73
2023/10/12 05:10:48;;;;;;;57.00;3.50;;;;;;;;;;5066345;28;20452;-72
2023/10/12 05:13:20;;;;;;;56.90;3.30;;;;;;;;;;5060228;28;20543;-72
2023/10/12 05:15:54;;;;;;;56.33;2.50;;;;;;;;;;5053679;28;20449;-72
2023/10/12 05:18:22;;;;;;;57.23;2.70;;;;;;;;;;5053535;28;20829;-72
2023/10/12 05:20:51;;;;;;;58.30;4.97;;;;;;;;;;5053114;28;20899;-72
2023/10/12 05:23:18;;;;;;;56.40;2.73;;;;;;;;;;5053275;28;20490;-72
2023/10/12 05:26:07;;;;;;;56.20;2.50;;;;;;;;;;5053218;28;20449;-73
2023/10/12 05:28:36;;;;;;;57.13;3.00;;;;;;;;;;5053428;28;20529;-73
2023/10/12 05:31:10;;;;;;;57.37;2.80;;;;;;;;;;5053446;28;20504;-73
2023/10/12 05:33:43;;;;;;;56.90;3.03;;;;;;;;;;5053246;28;20475;-72
2023/10/12 05:36:12;;;;;;;56.70;3.30;;;;;;;;;;5053479;28;20547;-72
2023/10/12 05:38:40;;;;;;;57.00;2.90;;;;;;;;;;5053101;28;20467;-73
2023/10/12 05:41:09;;;;;;;56.90;2.80;;;;;;;;;;5052980;28;20815;-72
2023/10/12 05:43:38;;;;;;;56.87;3.10;;;;;;;;;;5052845;28;20831;-72
2023/10/12 05:46:10;;;;;;;56.17;2.70;;;;;;;;;;5052737;28;20452;-73
2023/10/12 05:48:45;;;;;;;58.00;2.83;;;;;;;;;;5052602;28;20510;-72
2023/10/12 05:51:14;;;;;;;56.27;2.33;;;;;;;;;;5052629;28;20451;-72
2023/10/12 05:53:41;;;;;;;56.70;2.57;;;;;;;;;;5052843;28;20456;-72
2023/10/12 05:56:09;;;;;;;55.93;2.40;;;;;;;;;;5052725;28;20970;-72
2023/10/12 05:58:38;;;;;;;56.47;2.50;;;;;;;;;;5052455;28;20550;-72
2023/10/12 06:01:31;;;;;;;56.63;3.07;;;;;;;;;;5052492;28;20954;-72
2023/10/12 06:03:58;;;;;;;56.60;2.80;;;;;;;;;;5044493;28;20453;-72
2023/10/12 06:06:31;;;;;;;56.40;2.40;;;;;;;;;;5052522;28;20451;-73
2023/10/12 06:08:59;;;;;;;57.10;2.70;;;;;;;;;;5051790;28;20477;-72
2023/10/12 06:11:26;;;;;;;56.30;2.30;;;;;;;;;;5052562;28;20446;-73
2023/10/12 06:13:53;;;;;;;56.47;2.50;;;;;;;;;;5052392;28;20458;-73
2023/10/12 06:16:20;;;;;;;56.40;2.77;;;;;;;;;;5052652;28;20470;-73
2023/10/12 06:18:49;;;;;;;56.53;2.57;;;;;;;;;;5052479;28;20461;-73
2023/10/12 06:21:18;;;;;;;56.63;3.00;;;;;;;;;;5051967;28;20444;-74
2023/10/12 06:23:48;;;;;;;56.40;2.50;;;;;;;;;;5052183;28;20496;-74
2023/10/12 06:26:28;;;;;;;56.90;2.47;;;;;;;;;;5049807;28;20453;-74
2023/10/12 06:28:55;;;;;;;56.17;2.40;;;;;;;;;;5050061;28;20472;-74
2023/10/12 06:31:22;;;;;;;57.77;2.80;;;;;;;;;;5057266;28;20460;-74
2023/10/12 06:33:50;;;;;;;57.20;3.00;;;;;;;;;;5051859;28;20540;-74
2023/10/12 06:36:22;;;;;;;56.80;2.93;;;;;;;;;;5052130;28;20440;-74
2023/10/12 06:40:07;;;;;;;56.37;2.50;;;;;;;;;;5052108;28;20474;-74
2023/10/12 06:41:58;;;;;;;56.30;2.40;;;;;;;;;;5051491;28;20960;-74
2023/10/12 06:44:26;;;;;;;58.47;4.20;;;;;;;;;;5051904;28;20586;-74
2023/10/12 06:46:53;;;;;;;56.37;2.20;;;;;;;;;;5052099;28;20520;-74
2023/10/12 06:49:23;;;;;;;57.07;3.10;;;;;;;;;;5051696;28;20518;-74
2023/10/12 06:51:53;;;;;;;60.07;3.47;;;;;;;;;;5051610;28;20449;-72
2023/10/12 06:54:32;;;;;;;57.17;3.30;;;;;;;;;;5051889;28;20451;-72
2023/10/12 07:00:17;;;;;;;57.00;3.67;;;;;;;;;;5051350;28;20477;-74
2023/10/12 07:02:51;;;;;;;56.80;2.70;;;;;;;;;;5051221;28;20506;-74
2023/10/12 07:05:20;;;;;;;56.53;2.87;;;;;;;;;;5051481;28;20486;-73
2023/10/12 07:07:51;;;;;;;56.60;2.70;;;;;;;;;;5051488;28;20459;-72
2023/10/12 07:10:28;;;;;;;56.67;2.67;;;;;;;;;;5051472;28;20960;-72
2023/10/12 07:12:59;;;;;;;56.20;2.60;;;;;;;;;;5051404;28;20462;-72
2023/10/12 07:15:32;;;;;;;57.30;3.47;;;;;;;;;;5051359;28;20454;-73
2023/10/12 07:18:05;;;;;;;57.17;2.97;;;;;;;;;;5051076;28;20482;-72
2023/10/12 07:20:42;;;;;;;56.63;2.87;;;;;;;;;;5051241;28;20455;-73
2023/10/12 07:23:15;;;;;;;56.60;3.00;;;;;;;;;;5051174;28;20483;-73
2023/10/12 07:25:45;;;;;;;56.67;2.60;;;;;;;;;;5051176;28;20454;-73
2023/10/12 07:28:17;;;;;;;56.50;2.60;;;;;;;;;;5051071;28;20471;-72
2023/10/12 07:31:02;;;;;;;57.83;2.90;;;;;;;;;;5051145;28;20819;-73
2023/10/12 07:33:30;;;;;;;56.50;2.70;;;;;;;;;;5051034;28;20535;-74
2023/10/12 07:35:57;;;;;;;56.77;2.80;;;;;;;;;;5050821;28;20444;-74
2023/10/12 07:38:34;;;;;;;57.37;2.40;;;;;;;;;;5051204;28;20466;-74
2023/10/12 07:41:05;;;;;;;57.47;2.80;;;;;;;;;;5051343;28;20506;-73
2023/10/12 07:43:32;;;;;;;57.17;2.37;;;;;;;;;;5051097;28;20489;-74
2023/10/12 07:46:09;;;;;;;56.27;2.20;;;;;;;;;;5051052;28;20445;-74
2023/10/12 07:48:42;;;;;;;59.40;2.73;;;;;;;;;;5051041;28;20846;-74
2023/10/12 07:51:16;;;;;;;57.53;2.30;;;;;;;;;;5050807;28;20452;-73
2023/10/12 07:53:43;;;;;;;56.40;2.10;;;;;;;;;;5050873;28;20454;-74
2023/10/12 07:56:16;;;;;;;57.40;2.47;;;;;;;;;;5051126;28;20463;-74
2023/10/12 07:58:43;;;;;;;56.97;3.23;;;;;;;;;;5051201;28;20479;-75
2023/10/12 08:01:26;;;;;;;56.50;2.30;;;;;;;;;;5050585;28;20457;-75
2023/10/12 08:03:58;;;;;;;56.37;2.30;;;;;;;;;;5050862;28;20537;-74
2023/10/12 08:06:30;;;;;;;57.47;3.07;;;;;;;;;;5051066;28;20534;-74
2023/10/12 08:09:04;;;;;;;56.27;2.23;;;;;;;;;;5050350;28;20987;-75
2023/10/12 08:11:34;;;;;;;56.40;2.60;;;;;;;;;;5050719;28;20458;-75
2023/10/12 08:14:19;;;;;;;58.50;2.63;;;;;;;;;;5050548;28;20457;-75
2023/10/12 08:17:29;;;;;;;56.90;2.90;;;;;;;;;;5050787;28;20484;-75
2023/10/12 08:19:39;;;;;;;57.53;3.17;;;;;;;;;;5050661;28;20475;-75
2023/10/12 08:22:17;;;;;;;56.87;2.70;;;;;;;;;;5050333;28;20490;-74
2023/10/12 08:24:46;;;;;;;56.70;2.63;;;;;;;;;;5050968;28;20456;-75
2023/10/12 08:27:18;;;;;;;56.30;2.10;;;;;;;;;;5050927;28;20453;-75
2023/10/12 08:30:11;;;;;;;56.60;2.37;;;;;;;;;;5050652;28;20514;-75
2023/10/12 08:32:42;;;;;;;57.40;3.20;;;;;;;;;;5050510;28;20445;-75
2023/10/12 08:35:32;;;;;;;56.50;2.50;;;;;;;;;;5050717;28;20446;-74
2023/10/12 08:38:15;;;;;;;56.60;2.20;;;;;;;;;;5050272;28;20821;-75
2023/10/12 08:43:45;;;;;;;57.17;2.73;;;;;;;;;;5050408;28;20636;-75
2023/10/12 08:46:19;;;;;;;56.20;2.17;;;;;;;;;;5050721;28;20453;-75
2023/10/12 08:48:53;;;;;;;56.50;2.40;;;;;;;;;;5052362;28;20474;-75
2023/10/12 08:51:27;;;;;;;56.30;2.50;;;;;;;;;;5054099;28;20823;-75
2023/10/12 08:53:54;;;;;;;57.27;2.63;;;;;;;;;;5054345;28;20459;-75
2023/10/12 08:56:22;;;;;;;56.53;2.50;;;;;;;;;;5054080;28;20485;-74
2023/10/12 08:58:55;;;;;;;56.37;2.27;;;;;;;;;;5053978;28;20467;-75
2023/10/12 09:01:23;;;;;;;56.40;2.20;;;;;;;;;;5053759;28;20479;-75
2023/10/12 09:03:53;;;;;;;56.70;2.40;;;;;;;;;;5053773;28;20480;-74
2023/10/12 09:09:05;;;;;;;57.33;2.60;;;;;;;;;;5073675;28;20476;-74
2023/10/12 09:11:33;;;;;;;59.13;2.43;;;;;;;;;;5073165;28;20976;-73
2023/10/12 09:14:11;;;;;;;58.50;4.73;;;;;;;;;;5074096;28;20450;-73
2023/10/12 09:16:38;;;;;;;56.37;2.40;;;;;;;;;;5078942;28;20458;-73
2023/10/12 09:19:07;;;;;;;57.20;3.13;;;;;;;;;;5078258;28;20455;-73
2023/10/12 09:21:42;;;;;;;56.80;2.60;;;;;;;;;;5078189;28;20449;-74
2023/10/12 09:24:15;;;;;;;57.30;2.60;;;;;;;;;;5078423;28;20540;-74
2023/10/12 09:26:49;;;;;;;58.00;3.33;;;;;;;;;;5078376;28;20463;-73
2023/10/12 09:29:23;;;;;;;58.00;3.17;;;;;;;;;;5077804;28;20484;-74
2023/10/12 09:32:15;;;;;;;56.67;2.33;;;;;;;;;;5078025;28;20516;-73
2023/10/12 09:35:02;;;;;;;56.50;2.67;;;;;;;;;;5078272;28;20433;-75
2023/10/12 09:37:29;;;;;;;56.37;2.77;;;;;;;;;;5078323;28;20433;-74
2023/10/12 09:39:56;;;;;;;56.10;2.23;;;;;;;;;;5077604;28;20451;-74
2023/10/12 09:42:30;;;;;;;56.67;2.40;;;;;;;;;;5077738;28;20547;-74
2023/10/12 09:45:10;;;;;;;56.10;2.30;;;;;;;;;;5076660;28;20510;-73
2023/10/12 09:47:50;;;;;;;56.90;2.20;;;;;;;;;;5076362;28;20445;-75
2023/10/12 09:50:27;;;;;;;56.40;2.47;;;;;;;;;;5075852;28;20437;-75
2023/10/12 09:52:58;;;;;;;56.40;2.73;;;;;;;;;;5057831;28;20432;-76
2023/10/12 09:55:32;;;;;;;56.27;2.10;;;;;;;;;;5054860;28;20448;-76
2023/10/12 09:58:06;;;;;;;56.20;2.40;;;;;;;;;;5054094;28;20447;-76
2023/10/12 10:03:17;;;;;;;56.37;2.77;;;;;;;;;;5053007;28;20538;-75
2023/10/12 10:05:52;;;;;;;56.83;2.47;;;;;;;;;;5054664;28;20466;-74
2023/10/12 10:08:22;;;;;;;56.40;2.30;;;;;;;;;;5053321;28;20467;-75
2023/10/12 10:10:57;;;;;;;56.27;2.00;;;;;;;;;;5052132;28;20456;-75
2023/10/12 10:13:46;;;;;;;58.17;3.10;;;;;;;;;;5052697;28;20451;-75
2023/10/12 10:16:17;;;;;;;57.20;2.40;;;;;;;;;;5045000;28;20447;-76
2023/10/12 10:18:46;;;;;;;57.43;3.20;;;;;;;;;;5053724;28;21171;-76
2023/10/12 10:21:15;;;;;;;56.57;2.63;;;;;;;;;;5052664;28;20990;-76
2023/10/12 10:23:48;;;;;;;56.10;2.00;;;;;;;;;;5053004;28;20490;-76
2023/10/12 10:26:20;;;;;;;56.97;2.57;;;;;;;;;;5052961;28;20448;-76
2023/10/12 10:28:55;;;;;;;56.43;2.30;;;;;;;;;;5052556;28;20470;-76
2023/10/12 10:31:33;;;;;;;56.30;2.93;;;;;;;;;;5052898;28;20945;-76
2023/10/12 10:34:03;;;;;;;58.70;2.50;;;;;;;;;;5053268;28;20809;-75
2023/10/12 10:36:35;;;;;;;56.33;2.00;;;;;;;;;;5052434;28;20494;-75
2023/10/12 10:39:08;;;;;;;56.17;2.63;;;;;;;;;;5052107;28;20468;-76
2023/10/12 10:41:56;;;;;;;57.73;3.40;;;;;;;;;;5052125;28;20445;-76
2023/10/12 10:44:26;;;;;;;57.23;3.07;;;;;;;;;;5052466;28;20489;-75
2023/10/12 10:46:57;;;;;;;56.80;2.47;;;;;;;;;;5052252;28;20462;-76
2023/10/12 10:49:30;;;;;;;56.17;2.27;;;;;;;;;;5054553;28;20491;-75
2023/10/12 10:52:13;;;;;;;56.27;2.27;;;;;;;;;;5054125;28;20519;-75
2023/10/12 10:54:51;;;;;;;56.20;2.23;;;;;;;;;;5052317;28;20784;-76
2023/10/12 10:57:24;;;;;;;56.30;2.10;;;;;;;;;;5051765;28;21039;-76
2023/10/12 10:59:52;;;;;;;58.57;2.80;;;;;;;;;;5051654;28;20843;-75
2023/10/12 11:02:22;;;;;;;56.10;2.40;;;;;;;;;;5051492;28;20457;-75
2023/10/12 11:04:51;;;;;;;56.20;2.30;;;;;;;;;;5051402;28;20570;-76
2023/10/12 11:07:18;;;;;;;56.40;2.27;;;;;;;;;;5051880;28;20735;-75
2023/10/12 11:12:32;;;;;;;56.70;2.77;;;;;;;;;;5051137;28;20959;-75
2023/10/12 11:15:00;;;;;;;56.70;2.20;;;;;;;;;;5051552;28;20447;-75
2023/10/12 11:17:30;;;;;;;55.83;2.40;;;;;;;;;;5051276;28;20452;-76
2023/10/12 11:19:57;;;;;;;56.87;2.67;;;;;;;;;;5051370;28;20561;-75
2023/10/12 11:22:25;;;;;;;56.00;2.27;;;;;;;;;;5051626;28;20491;-75
2023/10/12 11:24:53;;;;;;;56.73;2.90;;;;;;;;;;5051693;28;20531;-75
2023/10/12 11:27:31;;;;;;;56.20;2.13;;;;;;;;;;5051492;28;20457;-76
2023/10/12 11:30:00;;;;;;;56.10;2.37;;;;;;;;;;5051343;28;20589;-75
2023/10/12 11:32:30;;;;;;;56.00;1.97;;;;;;;;;;5051464;28;20450;-76
2023/10/12 11:34:59;;;;;;;56.47;2.20;;;;;;;;;;5051194;28;20457;-76
2023/10/12 11:37:28;;;;;;;56.60;2.23;;;;;;;;;;5051212;28;20487;-76
2023/10/12 11:39:57;;;;;;;56.73;3.40;;;;;;;;;;5050881;28;20496;-76
2023/10/12 11:42:24;;;;;;;56.70;2.63;;;;;;;;;;5050737;28;20481;-75
2023/10/12 11:44:52;;;;;;;56.17;2.20;;;;;;;;;;5051091;28;20534;-75
2023/10/12 11:47:37;;;;;;;56.97;2.73;;;;;;;;;;5051028;28;20452;-76
2023/10/12 11:50:09;;;;;;;57.80;3.37;;;;;;;;;;5050756;28;20499;-75
2023/10/12 11:52:37;;;;;;;55.60;1.90;;;;;;;;;;5050627;28;20452;-75
2023/10/12 11:55:06;;;;;;;62.13;2.83;;;;;;;;;;5050568;28;20480;-75
2023/10/12 11:57:33;;;;;;;56.70;2.10;;;;;;;;;;5050595;28;20451;-75
2023/10/12 12:00:17;;;;;;;56.80;2.50;;;;;;;;;;5050677;28;20477;-76
2023/10/12 12:02:46;;;;;;;56.20;2.60;;;;;;;;;;5050513;28;20901;-76
2023/10/12 12:05:16;;;;;;;56.57;2.80;;;;;;;;;;5050275;28;20430;-76
2023/10/12 12:07:43;;;;;;;56.67;2.43;;;;;;;;;;5049758;28;20442;-76
2023/10/12 12:10:13;;;;;;;56.13;2.33;;;;;;;;;;5050342;28;20471;-76
2023/10/12 12:12:40;;;;;;;56.40;2.83;;;;;;;;;;5050664;28;20542;-76
2023/10/12 12:15:08;;;;;;;55.87;1.90;;;;;;;;;;5050394;28;20445;-76
2023/10/12 12:17:35;;;;;;;56.40;2.57;;;;;;;;;;5050966;28;20455;-75
2023/10/12 12:20:08;;;;;;;56.67;2.77;;;;;;;;;;5050270;28;20476;-74
2023/10/12 12:22:42;;;;;;;56.47;2.30;;;;;;;;;;5050655;28;20544;-75
2023/10/12 12:25:18;;;;;;;56.10;2.10;;;;;;;;;;5054360;28;20492;-75
2023/10/12 12:27:48;;;;;;;57.43;2.47;;;;;;;;;;5054579;28;20522;-75
2023/10/12 12:30:23;;;;;;;56.80;3.20;;;;;;;;;;5054553;28;20441;-75
2023/10/12 12:32:51;;;;;;;57.23;2.47;;;;;;;;;;5054478;28;21175;-76
2023/10/12 12:35:19;;;;;;;57.80;2.97;;;;;;;;;;5054662;28;20446;-75
2023/10/12 12:37:46;;;;;;;56.77;3.50;;;;;;;;;;5054733;28;20460;-76
2023/10/12 12:40:29;;;;;;;56.17;2.17;;;;;;;;;;5054227;28;20445;-75
2023/10/12 12:42:57;;;;;;;57.13;3.33;;;;;;;;;;5054183;28;20450;-76
2023/10/12 12:45:24;;;;;;;56.77;2.87;;;;;;;;;;5054383;28;20480;-76
2023/10/12 12:47:51;;;;;;;57.20;2.53;;;;;;;;;;5054395;28;20459;-76
2023/10/12 12:50:19;;;;;;;55.87;2.13;;;;;;;;;;5054036;28;20452;-76
2023/10/12 12:52:47;;;;;;;56.80;2.90;;;;;;;;;;5053998;28;20464;-74
2023/10/12 12:55:16;;;;;;;57.27;2.70;;;;;;;;;;5053826;28;20446;-75
2023/10/12 12:57:45;;;;;;;56.90;2.70;;;;;;;;;;5054270;28;20453;-74
2023/10/12 13:00:19;;;;;;;57.07;2.77;;;;;;;;;;5053857;28;20479;-74
2023/10/12 13:02:46;;;;;;;56.70;2.60;;;;;;;;;;5053773;28;20544;-74
2023/10/12 13:05:14;;;;;;;57.00;2.93;;;;;;;;;;5054260;28;20978;-75
2023/10/12 13:07:45;;;;;;;56.80;2.80;;;;;;;;;;5053666;28;20835;-75
2023/10/12 13:10:12;;;;;;;56.47;2.60;;;;;;;;;;5053456;28;20506;-74
2023/10/12 13:12:40;;;;;;;56.57;2.03;;;;;;;;;;5053690;28;20502;-75
2023/10/12 13:15:09;;;;;;;56.70;2.60;;;;;;;;;;5054088;28;20502;-74
2023/10/12 13:17:37;;;;;;;56.30;2.13;;;;;;;;;;5053559;28;20451;-74
2023/10/12 13:20:04;;;;;;;56.50;2.80;;;;;;;;;;5053264;28;20477;-75
2023/10/12 13:22:31;;;;;;;57.67;2.70;;;;;;;;;;5053587;28;20445;-75
2023/10/12 13:24:59;;;;;;;56.40;2.20;;;;;;;;;;5053437;28;20515;-74
2023/10/12 13:27:27;;;;;;;57.10;2.67;;;;;;;;;;5053820;28;20450;-74
2023/10/12 13:29:57;;;;;;;57.20;2.37;;;;;;;;;;5053255;28;20474;-74
2023/10/12 13:32:26;;;;;;;56.20;2.17;;;;;;;;;;5053223;28;20483;-74
2023/10/12 13:34:57;;;;;;;56.63;2.37;;;;;;;;;;5052506;28;20456;-74
2023/10/12 13:37:27;;;;;;;58.20;3.87;;;;;;;;;;5053391;28;20507;-74
2023/10/12 13:39:54;;;;;;;56.43;2.33;;;;;;;;;;5053109;28;20476;-73
2023/10/12 13:42:23;;;;;;;55.77;2.20;;;;;;;;;;5045232;28;20497;-74
2023/10/12 13:44:50;;;;;;;57.57;2.80;;;;;;;;;;5052983;28;20497;-75
2023/10/12 13:47:18;;;;;;;56.27;2.00;;;;;;;;;;5052884;28;20449;-74
2023/10/12 13:49:45;;;;;;;58.43;2.73;;;;;;;;;;5053024;28;20839;-73
2023/10/12 13:52:12;;;;;;;57.03;2.40;;;;;;;;;;5053127;28;20454;-75
2023/10/12 13:54:45;;;;;;;56.10;2.43;;;;;;;;;;5053026;28;20453;-75
2023/10/12 13:57:14;;;;;;;56.00;2.30;;;;;;;;;;5053117;28;20551;-75
2023/10/12 13:59:45;;;;;;;56.60;2.80;;;;;;;;;;5052562;28;20515;-75
2023/10/12 14:02:13;;;;;;;56.10;2.23;;;;;;;;;;5052438;28;20808;-75
2023/10/12 14:04:40;;;;;;;57.60;2.73;;;;;;;;;;5052510;28;21015;-75
2023/10/12 14:07:09;;;;;;;56.57;2.17;;;;;;;;;;5052656;28;20527;-75
2023/10/12 14:09:39;;;;;;;56.10;2.17;;;;;;;;;;5052470;28;20963;-75
2023/10/12 14:12:06;;;;;;;56.57;2.17;;;;;;;;;;5052792;28;20463;-75
2023/10/12 14:14:33;;;;;;;55.67;2.00;;;;;;;;;;5052715;28;20463;-75
2023/10/12 14:17:04;;;;;;;56.07;1.87;;;;;;;;;;5052427;28;20447;-76
2023/10/12 14:19:31;;;;;;;56.83;2.30;;;;;;;;;;5052296;28;20968;-76
2023/10/12 14:22:00;;;;;;;56.27;2.50;;;;;;;;;;5052398;28;20451;-76
2023/10/12 14:24:27;;;;;;;57.10;2.60;;;;;;;;;;5052302;28;20490;-76
2023/10/12 14:26:58;;;;;;;56.40;2.77;;;;;;;;;;5052210;28;21002;-76
2023/10/12 14:29:25;;;;;;;56.60;2.43;;;;;;;;;;5052462;28;20468;-76
2023/10/12 14:31:54;;;;;;;56.30;2.70;;;;;;;;;;5052361;28;20815;-76
2023/10/12 14:34:22;;;;;;;56.20;2.60;;;;;;;;;;5052382;28;20436;-76
2023/10/12 14:36:49;;;;;;;56.37;3.30;;;;;;;;;;5052156;28;20539;-75
2023/10/12 14:39:23;;;;;;;57.27;2.60;;;;;;;;;;5051715;28;20944;-75
2023/10/12 14:41:50;;;;;;;56.00;2.60;;;;;;;;;;5052154;28;20550;-75
2023/10/12 14:44:19;;;;;;;57.00;2.90;;;;;;;;;;5051984;28;20489;-75
2023/10/12 14:46:46;;;;;;;56.80;2.80;;;;;;;;;;5050977;28;20829;-75
2023/10/12 14:49:14;;;;;;;56.30;2.60;;;;;;;;;;5051467;28;20560;-75
2023/10/12 14:51:42;;;;;;;56.07;2.43;;;;;;;;;;5051776;28;20513;-75
2023/10/12 14:54:10;;;;;;;57.70;2.73;;;;;;;;;;5051769;28;20447;-75
2023/10/12 14:56:39;;;;;;;56.17;2.77;;;;;;;;;;5051725;28;20454;-75
2023/10/12 14:59:08;;;;;;;56.70;3.00;;;;;;;;;;5051619;28;20522;-75
2023/10/12 15:01:38;;;;;;;58.10;3.90;;;;;;;;;;5051531;28;20497;-75
2023/10/12 15:04:07;;;;;;;56.70;2.53;;;;;;;;;;5051309;28;20484;-74
2023/10/12 15:06:34;;;;;;;56.73;2.47;;;;;;;;;;5051852;28;20464;-75
2023/10/12 15:09:04;;;;;;;57.80;2.50;;;;;;;;;;5051399;28;20467;-75
2023/10/12 15:11:33;;;;;;;56.30;2.30;;;;;;;;;;5051556;28;20458;-74
2023/10/12 15:14:01;;;;;;;56.87;2.60;;;;;;;;;;5051475;28;20491;-73
2023/10/12 15:16:30;;;;;;;56.40;2.50;;;;;;;;;;5043618;28;20447;-75
2023/10/12 15:18:58;;;;;;;56.30;2.10;;;;;;;;;;5051113;28;20471;-74
2023/10/12 15:21:25;;;;;;;57.30;2.83;;;;;;;;;;5043121;28;20490;-74
2023/10/12 15:23:53;;;;;;;56.87;2.80;;;;;;;;;;5051204;28;20455;-75
2023/10/12 15:26:22;;;;;;;56.60;2.80;;;;;;;;;;5051159;28;20529;-75
2023/10/12 15:28:49;;;;;;;57.10;2.83;;;;;;;;;;5051241;28;20566;-75